sensor_id;sensor_type;location;lat;lon;timestamp;pressure;altitude;pressure_sealevel;temperature;humidity
26839;BME280;40088;51.214;6.786;2022-09-09T00:01:57;100572.66;;;21.67;60.04
26839;BME280;40088;51.214;6.786;2022-09-09T00:22:26;100569.88;;;21.67;60.22
26839;BME280;40088;51.214;6.786;2022-09-09T00:32:29;100565.41;;;21.66;60.00
26839;BME280;40088;51.214;6.786;2022-09-09T00:42:41;100559.84;;;21.66;59.88
26839;BME280;40088;51.214;6.786;2022-09-09T00:52:55;100555.19;;;21.66;60.16
26839;BME280;40088;51.214;6.786;2022-09-09T01:03:30;100558.16;;;21.65;60.00
26839;BME280;40088;51.214;6.786;2022-09-09T01:13:35;100555.38;;;21.65;60.38
26839;BME280;40088;51.214;6.786;2022-09-09T01:34:14;100559.84;;;21.66;60.59
26839;BME280;40088;51.214;6.786;2022-09-09T01:44:15;100537.91;;;21.64;60.55
26839;BME280;40088;51.214;6.786;2022-09-09T01:54:15;100542.59;;;21.64;60.46
26839;BME280;40088;51.214;6.786;2022-09-09T02:14:40;100546.22;;;21.64;60.27
26839;BME280;40088;51.214;6.786;2022-09-09T02:24:42;100542.84;;;21.62;60.34
26839;BME280;40088;51.214;6.786;2022-09-09T02:34:45;100544.53;;;21.63;60.39
26839;BME280;40088;51.214;6.786;2022-09-09T02:44:48;100544.53;;;21.63;60.43
26839;BME280;40088;51.214;6.786;2022-09-09T02:54:49;100539.00;;;21.63;60.31
26839;BME280;40088;51.214;6.786;2022-09-09T03:04:55;100536.22;;;21.63;60.22
26839;BME280;40088;51.214;6.786;2022-09-09T03:14:55;100527.91;;;21.63;60.57
26839;BME280;40088;51.214;6.786;2022-09-09T03:24:55;100531.75;;;21.62;60.16
26839;BME280;40088;51.214;6.786;2022-09-09T03:34:56;100525.38;;;21.62;60.47
26839;BME280;40088;51.214;6.786;2022-09-09T03:44:56;100527.28;;;21.61;59.94
26839;BME280;40088;51.214;6.786;2022-09-09T03:54:57;100517.06;;;21.62;60.22
26839;BME280;40088;51.214;6.786;2022-09-09T04:04:58;100527.28;;;21.61;60.42
26839;BME280;40088;51.214;6.786;2022-09-09T04:14:59;100521.75;;;21.61;60.16
26839;BME280;40088;51.214;6.786;2022-09-09T04:25:00;100530.06;;;21.61;60.33
26839;BME280;40088;51.214;6.786;2022-09-09T04:35:01;100522.81;;;21.60;60.35
26839;BME280;40088;51.214;6.786;2022-09-09T04:45:02;100522.81;;;21.60;59.80
26839;BME280;40088;51.214;6.786;2022-09-09T04:55:03;100526.44;;;21.61;60.38
26839;BME280;40088;51.214;6.786;2022-09-09T05:05:04;100523.03;;;21.58;60.20
26839;BME280;40088;51.214;6.786;2022-09-09T05:15:05;100521.13;;;21.59;60.04
26839;BME280;40088;51.214;6.786;2022-09-09T05:25:06;100511.97;;;21.58;60.30
26839;BME280;40088;51.214;6.786;2022-09-09T05:35:06;100516.41;;;21.59;59.94
26839;BME280;40088;51.214;6.786;2022-09-09T05:45:08;100510.28;;;21.57;60.29
26839;BME280;40088;51.214;6.786;2022-09-09T05:55:08;100514.72;;;21.58;59.80
26839;BME280;40088;51.214;6.786;2022-09-09T06:05:09;100526.91;;;21.57;59.91
26839;BME280;40088;51.214;6.786;2022-09-09T06:15:10;100523.03;;;21.58;59.90
26839;BME280;40088;51.214;6.786;2022-09-09T06:25:11;100527.75;;;21.58;60.07
26839;BME280;40088;51.214;6.786;2022-09-09T06:35:12;100527.75;;;21.58;60.17
26839;BME280;40088;51.214;6.786;2022-09-09T06:45:13;100530.75;;;21.56;60.12
26839;BME280;40088;51.214;6.786;2022-09-09T06:55:14;100530.75;;;21.56;60.10
26839;BME280;40088;51.214;6.786;2022-09-09T07:05:15;100532.69;;;21.56;59.85
26839;BME280;40088;51.214;6.786;2022-09-09T07:15:17;100541.00;;;21.56;59.87
26839;BME280;40088;51.214;6.786;2022-09-09T07:25:18;100548.25;;;21.57;59.58
26839;BME280;40088;51.214;6.786;2022-09-09T07:35:20;100556.81;;;21.55;59.76
26839;BME280;40088;51.214;6.786;2022-09-09T07:45:20;100563.19;;;21.56;59.83
26839;BME280;40088;51.214;6.786;2022-09-09T07:55:21;100567.03;;;21.55;59.43
26839;BME280;40088;51.214;6.786;2022-09-09T08:05:25;100564.25;;;21.55;59.62
26839;BME280;40088;51.214;6.786;2022-09-09T08:15:25;100569.78;;;21.55;59.26
26839;BME280;40088;51.214;6.786;2022-09-09T08:25:26;100569.78;;;21.55;59.13
26839;BME280;40088;51.214;6.786;2022-09-09T08:35:26;100571.97;;;21.53;58.83
26839;BME280;40088;51.214;6.786;2022-09-09T08:45:48;100568.09;;;21.54;59.09
26839;BME280;40088;51.214;6.786;2022-09-09T08:55:56;100566.41;;;21.53;58.90
26839;BME280;40088;51.214;6.786;2022-09-09T09:16:34;100582.22;;;21.52;58.40
26839;BME280;40088;51.214;6.786;2022-09-09T09:26:37;100586.91;;;21.52;58.46
26839;BME280;40088;51.214;6.786;2022-09-09T09:36:43;100590.75;;;21.51;58.49
26839;BME280;40088;51.214;6.786;2022-09-09T09:46:44;100599.94;;;21.51;58.28
26839;BME280;40088;51.214;6.786;2022-09-09T09:56:45;100580.72;;;21.50;58.16
26839;BME280;40088;51.214;6.786;2022-09-09T10:06:46;100582.66;;;21.49;57.71
26839;BME280;40088;51.214;6.786;2022-09-09T10:17:02;100562.41;;;21.49;57.85
26839;BME280;40088;51.214;6.786;2022-09-09T10:58:03;100555.78;;;21.50;57.91
26839;BME280;40088;51.214;6.786;2022-09-09T11:08:28;100545.56;;;21.50;57.63
26839;BME280;40088;51.214;6.786;2022-09-09T11:18:29;100550.22;;;21.50;57.96
26839;BME280;40088;51.214;6.786;2022-09-09T11:28:53;100564.09;;;21.50;57.97
26839;BME280;40088;51.214;6.786;2022-09-09T11:49:40;100553.88;;;21.50;58.25
26839;BME280;40088;51.214;6.786;2022-09-09T11:59:50;100553.88;;;21.50;58.44
26839;BME280;40088;51.214;6.786;2022-09-09T12:10:04;100561.31;;;21.50;58.50
26839;BME280;40088;51.214;6.786;2022-09-09T12:20:14;100558.53;;;21.50;58.18
26839;BME280;40088;51.214;6.786;2022-09-09T12:30:15;100549.19;;;21.51;58.66
26839;BME280;40088;51.214;6.786;2022-09-09T12:40:25;100553.88;;;21.50;58.48
26839;BME280;40088;51.214;6.786;2022-09-09T12:50:29;100555.78;;;21.50;58.21
26839;BME280;40088;51.214;6.786;2022-09-09T13:00:30;100543.84;;;21.49;57.83
26839;BME280;40088;51.214;6.786;2022-09-09T13:10:35;100536.59;;;21.48;57.93
26839;BME280;40088;51.214;6.786;2022-09-09T13:20:38;100526.38;;;21.49;58.02
26839;BME280;40088;51.214;6.786;2022-09-09T13:30:39;100538.28;;;21.49;57.99
26839;BME280;40088;51.214;6.786;2022-09-09T13:40:52;100520.38;;;21.52;58.25
26839;BME280;40088;51.214;6.786;2022-09-09T13:51:00;100519.19;;;21.59;58.42
26839;BME280;40088;51.214;6.786;2022-09-09T14:01:01;100525.88;;;21.70;57.71
26839;BME280;40088;51.214;6.786;2022-09-09T14:11:01;100520.34;;;21.70;57.72
26839;BME280;40088;51.214;6.786;2022-09-09T14:21:02;100530.13;;;21.73;57.55
26839;BME280;40088;51.214;6.786;2022-09-09T14:31:03;100529.03;;;21.74;56.78
26839;BME280;40088;51.214;6.786;2022-09-09T14:41:04;100527.25;;;21.79;57.14
26839;BME280;40088;51.214;6.786;2022-09-09T14:51:09;100549.44;;;21.79;55.89
26839;BME280;40088;51.214;6.786;2022-09-09T15:01:18;100563.06;;;21.81;56.84
26839;BME280;40088;51.214;6.786;2022-09-09T15:11:19;100551.81;;;21.76;56.82
26839;BME280;40088;51.214;6.786;2022-09-09T15:21:22;100549.16;;;21.69;57.49
26839;BME280;40088;51.214;6.786;2022-09-09T15:31:28;100533.00;;;21.66;57.97
26839;BME280;40088;51.214;6.786;2022-09-09T15:41:29;100537.91;;;21.64;58.11
26839;BME280;40088;51.214;6.786;2022-09-09T15:51:31;100547.56;;;21.62;58.52
26839;BME280;40088;51.214;6.786;2022-09-09T16:01:32;100556.09;;;21.60;59.12
26839;BME280;40088;51.214;6.786;2022-09-09T16:11:36;100548.84;;;21.59;59.01
26839;BME280;40088;51.214;6.786;2022-09-09T16:21:37;100548.84;;;21.59;59.68
26839;BME280;40088;51.214;6.786;2022-09-09T16:31:38;100563.78;;;21.58;59.90
26839;BME280;40088;51.214;6.786;2022-09-09T16:41:40;100564.63;;;21.58;60.25
26839;BME280;40088;51.214;6.786;2022-09-09T16:51:49;100569.59;;;21.56;60.13
26839;BME280;40088;51.214;6.786;2022-09-09T17:01:50;100569.34;;;21.58;60.26
26839;BME280;40088;51.214;6.786;2022-09-09T17:11:51;100574.03;;;21.57;60.22
26839;BME280;40088;51.214;6.786;2022-09-09T17:21:52;100585.13;;;21.57;60.73
26839;BME280;40088;51.214;6.786;2022-09-09T17:31:53;100579.59;;;21.57;60.64
26839;BME280;40088;51.214;6.786;2022-09-09T17:41:53;100585.13;;;21.57;60.74
26839;BME280;40088;51.214;6.786;2022-09-09T17:51:54;100595.38;;;21.57;61.12
26839;BME280;40088;51.214;6.786;2022-09-09T18:01:56;100610.09;;;21.57;61.10
26839;BME280;40088;51.214;6.786;2022-09-09T18:11:57;100625.88;;;21.57;61.08
26839;BME280;40088;51.214;6.786;2022-09-09T18:21:58;100624.81;;;21.58;61.34
26839;BME280;40088;51.214;6.786;2022-09-09T18:31:58;100622.03;;;21.58;61.46
26839;BME280;40088;51.214;6.786;2022-09-09T18:41:59;100636.97;;;21.57;61.18
26839;BME280;40088;51.214;6.786;2022-09-09T18:52:00;100645.28;;;21.57;61.74
26839;BME280;40088;51.214;6.786;2022-09-09T19:02:02;100645.28;;;21.57;61.68
26839;BME280;40088;51.214;6.786;2022-09-09T19:12:02;100649.16;;;21.56;61.79
26839;BME280;40088;51.214;6.786;2022-09-09T19:22:03;100667.47;;;21.57;61.63
26839;BME280;40088;51.214;6.786;2022-09-09T19:32:05;100664.69;;;21.57;61.59
26839;BME280;40088;51.214;6.786;2022-09-09T19:42:06;100680.50;;;21.56;61.75
26839;BME280;40088;51.214;6.786;2022-09-09T19:52:06;100680.50;;;21.56;61.56
26839;BME280;40088;51.214;6.786;2022-09-09T20:02:10;100691.59;;;21.56;61.76
26839;BME280;40088;51.214;6.786;2022-09-09T20:12:11;100704.59;;;21.56;61.61
26839;BME280;40088;51.214;6.786;2022-09-09T20:22:11;100708.22;;;21.56;61.71
26839;BME280;40088;51.214;6.786;2022-09-09T20:32:12;100718.47;;;21.56;61.19
26839;BME280;40088;51.214;6.786;2022-09-09T20:42:12;100722.28;;;21.55;61.54
26839;BME280;40088;51.214;6.786;2022-09-09T20:52:12;100725.06;;;21.55;61.21
26839;BME280;40088;51.214;6.786;2022-09-09T21:02:14;100721.44;;;21.54;61.57
26839;BME280;40088;51.214;6.786;2022-09-09T21:12:14;100725.94;;;21.55;61.62
26839;BME280;40088;51.214;6.786;2022-09-09T21:22:15;100703.75;;;21.55;61.64
26839;BME280;40088;51.214;6.786;2022-09-09T21:32:16;100702.88;;;21.55;61.35
26839;BME280;40088;51.214;6.786;2022-09-09T21:42:16;100702.03;;;21.54;61.36
26839;BME280;40088;51.214;6.786;2022-09-09T21:52:17;100713.13;;;21.54;61.37
26839;BME280;40088;51.214;6.786;2022-09-09T22:02:18;100714.22;;;21.53;61.18
26839;BME280;40088;51.214;6.786;2022-09-09T22:12:20;100713.13;;;21.54;61.14
26839;BME280;40088;51.214;6.786;2022-09-09T22:22:21;100710.59;;;21.53;61.05
26839;BME280;40088;51.214;6.786;2022-09-09T22:32:21;100705.03;;;21.53;61.13
26839;BME280;40088;51.214;6.786;2022-09-09T22:42:21;100712.28;;;21.54;61.47
26839;BME280;40088;51.214;6.786;2022-09-09T22:52:21;100716.13;;;21.53;61.44
26839;BME280;40088;51.214;6.786;2022-09-09T23:02:23;100717.22;;;21.52;60.95
26839;BME280;40088;51.214;6.786;2022-09-09T23:12:25;100711.66;;;21.52;61.19
26839;BME280;40088;51.214;6.786;2022-09-09T23:22:26;100723.38;;;21.54;61.00
26839;BME280;40088;51.214;6.786;2022-09-09T23:32:27;100720.84;;;21.52;61.26
26839;BME280;40088;51.214;6.786;2022-09-09T23:42:27;100723.00;;;21.50;60.76
26839;BME280;40088;51.214;6.786;2022-09-09T23:52:32;100725.78;;;21.50;60.66
